createdAt,value
2017-11-12T00:00:50.940Z,0.00
2017-11-12T00:01:50.933Z,0.00
2017-11-12T00:02:50.924Z,0.00
2017-11-12T00:03:50.923Z,0.00
2017-11-12T00:04:50.909Z,0.00
2017-11-12T00:05:50.906Z,0.00
2017-11-12T00:06:50.898Z,0.00
2017-11-12T00:07:50.886Z,0.00
2017-11-12T00:08:50.880Z,0.00
2017-11-12T00:09:50.872Z,0.00
2017-11-12T00:10:50.863Z,0.00
2017-11-12T00:11:50.861Z,0.00
2017-11-12T00:12:50.849Z,0.00
2017-11-12T00:13:50.843Z,0.00
2017-11-12T00:14:50.835Z,0.00
2017-11-12T00:15:50.827Z,0.00
2017-11-12T00:16:50.819Z,0.00
2017-11-12T00:17:50.822Z,0.00
2017-11-12T00:18:50.804Z,0.00
2017-11-12T00:19:50.797Z,0.00
2017-11-12T00:20:50.789Z,0.00
2017-11-12T00:21:50.782Z,0.00
2017-11-12T00:22:50.776Z,0.00
2017-11-12T00:23:50.766Z,0.00
2017-11-12T00:24:50.758Z,0.00
2017-11-12T00:25:50.751Z,0.00
2017-11-12T00:26:50.744Z,0.00
2017-11-12T00:27:50.735Z,0.00
2017-11-12T00:28:50.727Z,0.00
2017-11-12T00:29:50.721Z,0.00
2017-11-12T00:30:50.714Z,0.00
2017-11-12T00:31:50.706Z,0.00
2017-11-12T00:32:50.699Z,0.00
2017-11-12T00:33:50.691Z,0.00
2017-11-12T00:34:50.683Z,0.00
2017-11-12T00:35:50.676Z,0.00
2017-11-12T00:36:50.668Z,0.00
2017-11-12T00:37:50.661Z,0.00
2017-11-12T00:38:50.652Z,0.00
2017-11-12T00:39:50.644Z,0.00
2017-11-12T00:40:50.638Z,0.00
2017-11-12T00:41:50.630Z,0.00
2017-11-12T00:42:50.622Z,0.00
2017-11-12T00:43:50.616Z,0.00
2017-11-12T00:44:50.608Z,0.00
2017-11-12T00:45:50.599Z,0.00
2017-11-12T00:46:50.592Z,0.00
2017-11-12T00:47:50.584Z,0.00
2017-11-12T00:48:50.577Z,0.00
2017-11-12T00:49:50.569Z,0.00
2017-11-12T00:50:50.561Z,0.00
2017-11-12T00:51:50.555Z,0.00
2017-11-12T00:52:50.545Z,0.00
2017-11-12T00:53:50.540Z,0.00
2017-11-12T00:54:50.535Z,0.00
2017-11-12T00:55:50.524Z,0.00
2017-11-12T00:56:50.516Z,0.00
2017-11-12T00:57:50.510Z,0.00
2017-11-12T00:58:50.500Z,0.00
2017-11-12T00:59:50.501Z,0.00
2017-11-12T01:00:50.486Z,0.00
2017-11-12T01:01:50.477Z,0.00
2017-11-12T01:02:50.470Z,0.00
2017-11-12T01:03:50.471Z,0.00
2017-11-12T01:04:50.454Z,0.00
2017-11-12T01:05:50.447Z,0.00
2017-11-12T01:06:50.440Z,0.00
2017-11-12T01:07:50.432Z,0.00
2017-11-12T01:08:50.424Z,0.00
2017-11-12T01:09:50.424Z,0.00
2017-11-12T01:10:50.431Z,0.00
2017-11-12T01:11:50.401Z,0.00
2017-11-12T01:12:50.394Z,0.00
2017-11-12T01:13:50.387Z,0.00
2017-11-12T01:14:50.378Z,0.00
2017-11-12T01:15:50.371Z,0.00
2017-11-12T01:16:50.364Z,0.00
2017-11-12T01:17:50.356Z,0.00
2017-11-12T01:18:50.349Z,0.00
2017-11-12T01:19:50.339Z,0.00
2017-11-12T01:20:50.333Z,0.00
2017-11-12T01:21:50.324Z,0.00
2017-11-12T01:22:50.315Z,0.00
2017-11-12T01:23:50.310Z,0.00
2017-11-12T01:24:50.301Z,0.00
2017-11-12T01:25:50.293Z,0.00
2017-11-12T01:26:50.287Z,0.00
2017-11-12T01:27:50.278Z,0.00
2017-11-12T01:28:50.271Z,0.00
2017-11-12T01:29:50.267Z,0.00
2017-11-12T01:30:50.255Z,0.00
2017-11-12T01:31:50.249Z,0.00
2017-11-12T01:32:50.239Z,0.00
2017-11-12T01:33:50.233Z,0.00
2017-11-12T01:34:50.224Z,0.00
2017-11-12T01:35:50.221Z,0.00
2017-11-12T01:36:50.209Z,0.00
2017-11-12T01:37:50.202Z,0.00
2017-11-12T01:38:50.193Z,0.00
2017-11-12T01:39:50.186Z,0.00
2017-11-12T01:40:50.180Z,0.00
2017-11-12T01:41:50.171Z,0.00
2017-11-12T01:42:50.163Z,0.00
2017-11-12T01:43:50.155Z,0.00
2017-11-12T01:44:50.147Z,0.00
2017-11-12T01:45:50.140Z,0.00
2017-11-12T01:46:50.134Z,0.00
2017-11-12T01:47:50.125Z,0.00
2017-11-12T01:48:50.117Z,0.00
2017-11-12T01:49:50.110Z,0.00
2017-11-12T01:50:50.101Z,0.00
2017-11-12T01:51:50.094Z,0.00
2017-11-12T01:52:50.086Z,0.00
2017-11-12T01:53:50.079Z,0.00
2017-11-12T01:54:50.075Z,0.00
2017-11-12T01:55:50.063Z,0.00
2017-11-12T01:56:50.055Z,0.00
2017-11-12T01:57:50.047Z,0.00
2017-11-12T01:58:50.040Z,0.00
2017-11-12T01:59:50.034Z,0.00
2017-11-12T02:00:50.025Z,0.00
2017-11-12T02:01:50.019Z,0.00
2017-11-12T02:02:50.010Z,0.00
2017-11-12T02:03:50.003Z,0.00
2017-11-12T02:04:50.003Z,0.00
2017-11-12T02:05:49.987Z,0.00
2017-11-12T02:06:49.979Z,0.00
2017-11-12T02:07:49.971Z,0.00
2017-11-12T02:08:49.965Z,0.00
2017-11-12T02:09:49.958Z,0.00
2017-11-12T02:10:49.950Z,0.00
2017-11-12T02:11:49.941Z,0.00
2017-11-12T02:12:49.935Z,0.00
2017-11-12T02:13:49.926Z,0.00
2017-11-12T02:14:49.919Z,0.00
2017-11-12T02:15:49.913Z,0.00
2017-11-12T02:16:49.904Z,0.00
2017-11-12T02:17:49.896Z,0.00
2017-11-12T02:18:49.888Z,0.00
2017-11-12T02:19:49.882Z,0.00
2017-11-12T02:20:49.874Z,0.00
2017-11-12T02:21:49.866Z,0.00
2017-11-12T02:22:49.858Z,0.00
2017-11-12T02:23:49.851Z,0.00
2017-11-12T02:24:49.843Z,0.00
2017-11-12T02:25:49.836Z,0.00
2017-11-12T02:26:49.828Z,0.00
2017-11-12T02:27:49.822Z,0.00
2017-11-12T02:28:49.813Z,0.00
2017-11-12T02:29:49.807Z,0.00
2017-11-12T02:30:49.799Z,0.00
2017-11-12T02:31:49.792Z,0.00
2017-11-12T02:32:49.786Z,0.00
2017-11-12T02:33:49.776Z,0.00
2017-11-12T02:34:49.770Z,0.00
2017-11-12T02:35:49.760Z,0.00
2017-11-12T02:36:49.779Z,0.00
2017-11-12T02:37:49.746Z,0.00
2017-11-12T02:38:49.739Z,0.00
2017-11-12T02:39:49.730Z,0.00
2017-11-12T02:40:49.724Z,0.00
2017-11-12T02:41:49.716Z,0.00
2017-11-12T02:42:49.709Z,0.00
2017-11-12T02:43:49.701Z,0.00
2017-11-12T02:44:49.694Z,0.00
2017-11-12T02:45:49.688Z,0.00
2017-11-12T02:46:49.677Z,0.00
2017-11-12T02:47:49.671Z,0.00
2017-11-12T02:48:49.664Z,0.00
2017-11-12T02:49:49.658Z,0.00
2017-11-12T02:50:49.652Z,0.00
2017-11-12T02:51:49.642Z,0.00
2017-11-12T02:52:49.637Z,0.00
2017-11-12T02:53:49.629Z,0.00
2017-11-12T02:54:49.620Z,0.00
2017-11-12T02:55:49.612Z,0.00
2017-11-12T02:56:49.605Z,0.00
2017-11-12T02:57:49.597Z,0.00
2017-11-12T02:58:49.591Z,0.00
2017-11-12T02:59:49.583Z,0.00
2017-11-12T03:00:49.575Z,0.00
2017-11-12T03:01:49.569Z,0.00
2017-11-12T03:02:49.560Z,0.00
2017-11-12T03:03:49.552Z,0.00
2017-11-12T03:04:49.545Z,0.00
2017-11-12T03:05:49.538Z,0.00
2017-11-12T03:06:49.531Z,0.00
2017-11-12T03:07:49.523Z,0.00
2017-11-12T03:08:49.516Z,0.00
2017-11-12T03:09:49.509Z,0.00
2017-11-12T03:10:49.500Z,0.00
2017-11-12T03:11:49.492Z,0.00
2017-11-12T03:12:49.500Z,0.00
2017-11-12T03:13:49.478Z,0.00
2017-11-12T03:14:49.478Z,0.00
2017-11-12T03:15:49.463Z,0.00
2017-11-12T03:16:49.457Z,0.00
2017-11-12T03:17:49.450Z,0.00
2017-11-12T03:18:49.442Z,0.00
2017-11-12T03:19:49.433Z,0.00
2017-11-12T03:20:49.426Z,0.00
2017-11-12T03:21:49.418Z,0.00
2017-11-12T03:22:49.412Z,0.00
2017-11-12T03:23:49.403Z,0.00
2017-11-12T03:24:49.396Z,0.00
2017-11-12T03:25:49.388Z,0.00
2017-11-12T03:26:49.380Z,0.00
2017-11-12T03:27:49.375Z,0.00
2017-11-12T03:28:49.364Z,0.00
2017-11-12T03:29:49.357Z,0.00
2017-11-12T03:30:49.351Z,0.00
2017-11-12T03:31:49.343Z,0.00
2017-11-12T03:32:49.336Z,0.00
2017-11-12T03:33:49.328Z,0.00
2017-11-12T03:34:49.325Z,0.00
2017-11-12T03:35:49.314Z,0.00
2017-11-12T03:36:49.306Z,0.00
2017-11-12T03:37:49.298Z,0.00
2017-11-12T03:38:49.289Z,0.00
2017-11-12T03:39:49.281Z,0.00
2017-11-12T03:40:49.275Z,0.00
2017-11-12T03:41:49.267Z,0.00
2017-11-12T03:42:49.258Z,0.00
2017-11-12T03:43:49.252Z,0.00
2017-11-12T03:44:49.243Z,0.00
2017-11-12T03:45:49.243Z,0.00
2017-11-12T03:46:49.229Z,0.00
2017-11-12T03:47:49.226Z,0.00
2017-11-12T03:48:49.218Z,0.00
2017-11-12T03:49:49.206Z,0.00
2017-11-12T03:50:49.198Z,0.00
2017-11-12T03:51:49.191Z,0.00
2017-11-12T03:52:49.184Z,0.00
2017-11-12T03:53:49.176Z,0.00
2017-11-12T03:54:49.169Z,0.00
2017-11-12T03:55:49.161Z,0.00
2017-11-12T03:56:49.153Z,0.00
2017-11-12T03:57:49.146Z,0.00
2017-11-12T03:58:49.137Z,0.00
2017-11-12T03:59:49.130Z,0.00
2017-11-12T04:00:49.122Z,0.00
2017-11-12T04:01:49.115Z,0.00
2017-11-12T04:02:49.107Z,0.00
2017-11-12T04:03:49.099Z,0.00
2017-11-12T04:04:49.091Z,0.00
2017-11-12T04:05:49.084Z,0.00
2017-11-12T04:06:49.075Z,0.00
2017-11-12T04:07:49.068Z,0.00
2017-11-12T04:08:49.060Z,0.00
2017-11-12T04:09:49.054Z,0.00
2017-11-12T04:10:49.046Z,0.00
2017-11-12T04:11:49.038Z,0.00
2017-11-12T04:12:49.030Z,0.00
2017-11-12T04:13:49.023Z,0.00
2017-11-12T04:14:49.015Z,0.00
2017-11-12T04:15:49.006Z,0.00
2017-11-12T04:16:48.999Z,0.00
2017-11-12T04:17:48.993Z,0.00
2017-11-12T04:18:48.983Z,0.00
2017-11-12T04:19:48.975Z,0.00
2017-11-12T04:20:48.967Z,0.00
2017-11-12T04:21:48.958Z,0.00
2017-11-12T04:22:48.954Z,0.00
2017-11-12T04:23:48.943Z,0.00
2017-11-12T04:24:48.935Z,0.00
2017-11-12T04:25:48.928Z,0.00
2017-11-12T04:26:48.919Z,0.00
2017-11-12T04:27:48.913Z,0.00
2017-11-12T04:28:48.904Z,0.00
2017-11-12T04:29:48.896Z,0.00
2017-11-12T04:30:48.888Z,0.00
2017-11-12T04:31:48.880Z,0.00
2017-11-12T04:32:48.874Z,0.00
2017-11-12T04:33:48.865Z,0.00
2017-11-12T04:34:48.864Z,0.00
2017-11-12T04:35:48.849Z,0.00
2017-11-12T04:36:48.841Z,0.00
2017-11-12T04:37:48.833Z,0.00
2017-11-12T04:38:48.825Z,0.00
2017-11-12T04:39:48.818Z,0.00
2017-11-12T04:40:48.811Z,0.00
2017-11-12T04:41:48.806Z,0.00
2017-11-12T04:42:48.795Z,0.00
2017-11-12T04:43:48.788Z,0.00
2017-11-12T04:44:48.780Z,0.00
2017-11-12T04:45:48.773Z,0.00
2017-11-12T04:46:48.764Z,0.00
2017-11-12T04:47:48.763Z,0.00
2017-11-12T04:48:48.749Z,0.00
2017-11-12T04:49:48.741Z,0.00
2017-11-12T04:50:48.735Z,0.00
2017-11-12T04:51:48.727Z,0.00
2017-11-12T04:52:48.725Z,0.00
2017-11-12T04:53:48.711Z,0.00
2017-11-12T04:54:48.703Z,0.00
2017-11-12T04:55:48.696Z,0.00
2017-11-12T04:56:48.688Z,0.00
2017-11-12T04:57:48.682Z,0.00
2017-11-12T04:58:48.674Z,0.00
2017-11-12T04:59:48.667Z,0.00
2017-11-12T05:00:48.660Z,0.00
2017-11-12T05:01:48.653Z,0.00
2017-11-12T05:02:48.644Z,0.00
2017-11-12T05:03:48.637Z,0.00
2017-11-12T05:04:48.629Z,0.00
2017-11-12T05:05:48.633Z,0.00
2017-11-12T05:06:48.613Z,0.00
2017-11-12T05:07:48.605Z,0.00
2017-11-12T05:08:48.599Z,0.00
2017-11-12T05:09:48.593Z,0.00
2017-11-12T05:10:48.584Z,0.00
2017-11-12T05:11:48.575Z,0.00
2017-11-12T05:12:48.568Z,0.00
2017-11-12T05:13:48.561Z,0.00
2017-11-12T05:14:48.552Z,0.00
2017-11-12T05:15:48.544Z,0.00
2017-11-12T05:16:48.537Z,0.00
2017-11-12T05:17:48.531Z,0.00
2017-11-12T05:18:48.521Z,0.00
2017-11-12T05:19:48.516Z,0.00
2017-11-12T05:20:48.509Z,0.00
2017-11-12T05:21:48.501Z,0.00
2017-11-12T05:22:48.493Z,0.00
2017-11-12T05:23:48.485Z,0.00
2017-11-12T05:24:48.478Z,0.00
2017-11-12T05:25:48.471Z,0.00
2017-11-12T05:26:48.463Z,0.00
2017-11-12T05:27:48.457Z,0.00
2017-11-12T05:28:48.449Z,0.00
2017-11-12T05:29:48.442Z,0.00
2017-11-12T05:30:48.434Z,0.00
2017-11-12T05:31:48.426Z,0.00
2017-11-12T05:32:48.419Z,0.00
2017-11-12T05:33:48.412Z,0.00
2017-11-12T05:34:48.404Z,0.00
2017-11-12T05:35:48.396Z,0.00
2017-11-12T05:36:48.388Z,0.00
2017-11-12T05:37:48.382Z,0.00
2017-11-12T05:38:48.374Z,0.00
2017-11-12T05:39:48.367Z,0.00
2017-11-12T05:40:48.362Z,0.00
2017-11-12T05:41:48.353Z,0.00
2017-11-12T05:42:48.345Z,0.00
2017-11-12T05:43:48.337Z,0.00
2017-11-12T05:44:48.330Z,0.00
2017-11-12T05:45:48.323Z,0.00
2017-11-12T05:46:48.316Z,0.00
2017-11-12T05:47:48.310Z,0.00
2017-11-12T05:48:48.302Z,0.00
2017-11-12T05:49:48.294Z,0.00
2017-11-12T05:50:48.286Z,0.00
2017-11-12T05:51:48.280Z,0.00
2017-11-12T05:52:48.273Z,0.00
2017-11-12T05:53:48.265Z,0.00
2017-11-12T05:54:48.256Z,0.00
2017-11-12T05:55:48.250Z,0.00
2017-11-12T05:56:48.243Z,0.00
2017-11-12T05:57:48.236Z,0.00
2017-11-12T05:58:48.228Z,0.00
2017-11-12T05:59:48.222Z,0.00
2017-11-12T06:00:48.213Z,0.00
2017-11-12T06:01:48.207Z,0.00
2017-11-12T06:02:48.202Z,0.00
2017-11-12T06:03:48.192Z,0.00
2017-11-12T06:04:48.183Z,0.00
2017-11-12T06:05:48.178Z,0.00
2017-11-12T06:06:48.171Z,0.00
2017-11-12T06:07:48.164Z,0.00
2017-11-12T06:08:48.156Z,0.00
2017-11-12T06:09:48.149Z,0.00
2017-11-12T06:10:48.142Z,0.00
2017-11-12T06:11:48.135Z,0.00
2017-11-12T06:12:48.127Z,0.00
2017-11-12T06:13:48.120Z,0.00
2017-11-12T06:14:48.114Z,0.00
2017-11-12T06:15:48.106Z,0.00
2017-11-12T06:16:48.098Z,0.00
2017-11-12T06:17:48.094Z,0.00
2017-11-12T06:18:48.085Z,0.00
2017-11-12T06:19:48.079Z,0.00
2017-11-12T06:20:48.071Z,4.00
2017-11-12T06:21:48.064Z,4.00
2017-11-12T06:22:48.056Z,0.00
2017-11-12T06:23:48.049Z,0.00
2017-11-12T06:24:48.042Z,4.00
2017-11-12T06:25:48.035Z,4.00
2017-11-12T06:26:48.028Z,4.00
2017-11-12T06:27:48.022Z,4.00
2017-11-12T06:28:48.014Z,4.00
2017-11-12T06:29:48.006Z,4.00
2017-11-12T06:30:47.999Z,8.00
2017-11-12T06:31:47.992Z,8.00
2017-11-12T06:32:47.985Z,8.00
2017-11-12T06:33:47.979Z,12.00
2017-11-12T06:34:47.972Z,12.00
2017-11-12T06:35:47.963Z,8.00
2017-11-12T06:36:47.959Z,12.00
2017-11-12T06:37:47.951Z,16.00
2017-11-12T06:38:47.945Z,12.00
2017-11-12T06:39:47.936Z,16.00
2017-11-12T06:40:47.929Z,16.00
2017-11-12T06:41:47.949Z,20.00
2017-11-12T06:42:47.914Z,20.00
2017-11-12T06:43:47.912Z,24.00
2017-11-12T06:44:47.902Z,24.00
2017-11-12T06:45:47.893Z,28.00
2017-11-12T06:46:47.886Z,28.00
2017-11-12T06:47:47.879Z,32.00
2017-11-12T06:48:47.872Z,28.00
2017-11-12T06:49:47.865Z,32.00
2017-11-12T06:50:47.857Z,36.00
2017-11-12T06:51:47.851Z,40.00
2017-11-12T06:52:47.844Z,44.00
2017-11-12T06:53:47.836Z,48.00
2017-11-12T06:54:47.830Z,52.00
2017-11-12T06:55:47.826Z,48.00
2017-11-12T06:56:47.816Z,52.00
2017-11-12T06:57:47.809Z,56.00
2017-11-12T06:58:47.801Z,52.00
2017-11-12T06:59:47.794Z,56.00
2017-11-12T07:00:47.788Z,56.00
2017-11-12T07:01:47.781Z,60.00
2017-11-12T07:02:47.773Z,64.00
2017-11-12T07:03:47.767Z,72.00
2017-11-12T07:04:47.760Z,84.00
2017-11-12T07:05:47.758Z,92.00
2017-11-12T07:06:47.754Z,108.00
2017-11-12T07:07:47.743Z,108.00
2017-11-12T07:08:47.732Z,112.00
2017-11-12T07:09:47.726Z,116.00
2017-11-12T07:10:47.719Z,120.00
2017-11-12T07:11:47.712Z,128.00
2017-11-12T07:12:47.705Z,136.00
2017-11-12T07:13:47.698Z,156.00
2017-11-12T07:14:47.691Z,176.00
2017-11-12T07:15:47.684Z,184.00
2017-11-12T07:16:47.678Z,192.00
2017-11-12T07:17:47.672Z,200.00
2017-11-12T07:18:47.664Z,208.00
2017-11-12T07:19:47.655Z,216.00
2017-11-12T07:20:47.650Z,228.00
2017-11-12T07:21:47.643Z,240.00
2017-11-12T07:22:47.635Z,240.00
2017-11-12T07:23:47.628Z,240.00
2017-11-12T07:24:47.623Z,256.00
2017-11-12T07:25:47.616Z,276.00
2017-11-12T07:26:47.607Z,300.00
2017-11-12T07:27:47.601Z,316.00
2017-11-12T07:28:47.596Z,344.00
2017-11-12T07:29:47.587Z,356.00
2017-11-12T07:30:47.586Z,348.00
2017-11-12T07:31:47.574Z,340.00
2017-11-12T07:32:47.567Z,344.00
2017-11-12T07:33:47.560Z,320.00
2017-11-12T07:34:47.554Z,300.00
2017-11-12T07:35:47.546Z,268.00
2017-11-12T07:36:47.547Z,288.00
2017-11-12T07:37:47.533Z,340.00
2017-11-12T07:38:47.525Z,392.00
2017-11-12T07:39:47.520Z,400.00
2017-11-12T07:40:47.512Z,412.00
2017-11-12T07:41:47.505Z,416.00
2017-11-12T07:42:47.498Z,412.00
2017-11-12T07:43:47.491Z,396.00
2017-11-12T07:44:47.486Z,412.00
2017-11-12T07:45:47.479Z,388.00
2017-11-12T07:46:47.471Z,392.00
2017-11-12T07:47:47.464Z,452.00
2017-11-12T07:48:47.458Z,488.00
2017-11-12T07:49:47.451Z,512.00
2017-11-12T07:50:47.444Z,532.00
2017-11-12T07:51:47.438Z,548.00
2017-11-12T07:52:47.431Z,560.00
2017-11-12T07:53:47.424Z,560.00
2017-11-12T07:54:47.417Z,576.00
2017-11-12T07:55:47.410Z,600.00
2017-11-12T07:56:47.405Z,612.00
2017-11-12T07:57:47.396Z,652.00
2017-11-12T07:58:47.389Z,680.00
2017-11-12T07:59:47.383Z,720.00
2017-11-12T08:00:47.377Z,744.00
2017-11-12T08:01:47.370Z,768.00
2017-11-12T08:02:47.379Z,764.00
2017-11-12T08:03:47.356Z,732.00
2017-11-12T08:04:47.350Z,704.00
2017-11-12T08:05:47.343Z,656.00
2017-11-12T08:06:47.336Z,644.00
2017-11-12T08:07:47.329Z,648.00
2017-11-12T08:08:47.323Z,696.00
2017-11-12T08:09:47.316Z,704.00
2017-11-12T08:10:47.308Z,688.00
2017-11-12T08:11:47.303Z,684.00
2017-11-12T08:12:47.296Z,672.00
2017-11-12T08:13:47.291Z,668.00
2017-11-12T08:14:47.283Z,660.00
2017-11-12T08:15:47.278Z,568.00
2017-11-12T08:16:47.282Z,540.00
2017-11-12T08:17:47.262Z,512.00
2017-11-12T08:18:47.257Z,516.00
2017-11-12T08:19:47.251Z,672.00
2017-11-12T08:20:47.244Z,716.00
2017-11-12T08:21:47.237Z,768.00
2017-11-12T08:22:47.231Z,700.00
2017-11-12T08:23:47.224Z,660.00
2017-11-12T08:24:47.218Z,868.00
2017-11-12T08:25:47.211Z,956.00
2017-11-12T08:26:47.203Z,768.00
2017-11-12T08:27:47.198Z,604.00
2017-11-12T08:28:47.192Z,472.00
2017-11-12T08:29:47.185Z,404.00
2017-11-12T08:30:47.179Z,368.00
2017-11-12T08:31:47.171Z,372.00
2017-11-12T08:32:47.166Z,408.00
2017-11-12T08:33:47.158Z,472.00
2017-11-12T08:34:47.152Z,548.00
2017-11-12T08:35:47.144Z,608.00
2017-11-12T08:36:47.137Z,648.00
2017-11-12T08:37:47.132Z,680.00
2017-11-12T08:38:47.131Z,716.00
2017-11-12T08:39:47.117Z,740.00
2017-11-12T08:40:47.110Z,764.00
2017-11-12T08:41:47.104Z,780.00
2017-11-12T08:42:47.097Z,768.00
2017-11-12T08:43:47.092Z,764.00
2017-11-12T08:44:47.084Z,736.00
2017-11-12T08:45:47.078Z,692.00
2017-11-12T08:46:47.069Z,692.00
2017-11-12T08:47:47.064Z,688.00
2017-11-12T08:48:47.058Z,680.00
2017-11-12T08:49:47.052Z,680.00
2017-11-12T08:50:47.049Z,672.00
2017-11-12T08:51:47.037Z,628.00
2017-11-12T08:52:47.031Z,584.00
2017-11-12T08:53:47.025Z,580.00
2017-11-12T08:54:47.017Z,612.00
2017-11-12T08:55:47.012Z,636.00
2017-11-12T08:56:47.004Z,632.00
2017-11-12T08:57:46.998Z,644.00
2017-11-12T08:58:46.991Z,644.00
2017-11-12T08:59:46.984Z,664.00
2017-11-12T09:00:46.978Z,736.00
2017-11-12T09:01:46.971Z,804.00
2017-11-12T09:02:46.965Z,828.00
2017-11-12T09:03:46.960Z,908.00
2017-11-12T09:04:46.952Z,924.00
2017-11-12T09:05:46.945Z,1044.00
2017-11-12T09:06:46.938Z,1064.00
2017-11-12T09:07:46.932Z,1040.00
2017-11-12T09:08:46.925Z,1052.00
2017-11-12T09:09:46.921Z,1028.00
2017-11-12T09:10:46.913Z,996.00
2017-11-12T09:11:46.906Z,944.00
2017-11-12T09:12:46.904Z,980.00
2017-11-12T09:13:46.895Z,1032.00
2017-11-12T09:14:46.886Z,1072.00
2017-11-12T09:15:46.880Z,1048.00
2017-11-12T09:16:46.875Z,1032.00
2017-11-12T09:17:46.870Z,1008.00
2017-11-12T09:18:46.861Z,1072.00
2017-11-12T09:19:46.855Z,1116.00
2017-11-12T09:20:46.854Z,1232.00
2017-11-12T09:21:46.843Z,1232.00
2017-11-12T09:22:46.835Z,1304.00
2017-11-12T09:23:46.830Z,1360.00
2017-11-12T09:24:46.824Z,1412.00
2017-11-12T09:25:46.818Z,1428.00
2017-11-12T09:26:46.811Z,1428.00
2017-11-12T09:27:46.805Z,1428.00
2017-11-12T09:28:46.801Z,1428.00
2017-11-12T09:29:46.793Z,1420.00
2017-11-12T09:30:46.785Z,1408.00
2017-11-12T09:31:46.780Z,1444.00
2017-11-12T09:32:46.774Z,1456.00
2017-11-12T09:33:46.778Z,1424.00
2017-11-12T09:34:46.761Z,1452.00
2017-11-12T09:35:46.755Z,1460.00
2017-11-12T09:36:46.749Z,1376.00
2017-11-12T09:37:46.743Z,1268.00
2017-11-12T09:38:46.737Z,1284.00
2017-11-12T09:39:46.730Z,1200.00
2017-11-12T09:40:46.725Z,1256.00
2017-11-12T09:41:46.718Z,1372.00
2017-11-12T09:42:46.711Z,1408.00
2017-11-12T09:43:46.705Z,1376.00
2017-11-12T09:44:46.700Z,1428.00
2017-11-12T09:45:46.693Z,1516.00
2017-11-12T09:46:46.687Z,1552.00
2017-11-12T09:47:46.682Z,1600.00
2017-11-12T09:48:46.674Z,1552.00
2017-11-12T09:49:46.668Z,1576.00
2017-11-12T09:50:46.663Z,1600.00
2017-11-12T09:51:46.657Z,1484.00
2017-11-12T09:52:46.651Z,1576.00
2017-11-12T09:53:46.647Z,1636.00
2017-11-12T09:54:46.637Z,1656.00
2017-11-12T09:55:46.632Z,1672.00
2017-11-12T09:56:46.627Z,1660.00
2017-11-12T09:57:46.619Z,1692.00
2017-11-12T09:58:46.614Z,1716.00
2017-11-12T09:59:46.609Z,1752.00
2017-11-12T10:00:46.603Z,1968.00
2017-11-12T10:01:46.599Z,2104.00
2017-11-12T10:02:46.593Z,2148.00
2017-11-12T10:03:46.585Z,2192.00
2017-11-12T10:04:46.579Z,2112.00
2017-11-12T10:05:46.573Z,1984.00
2017-11-12T10:06:46.567Z,1968.00
2017-11-12T10:07:46.562Z,1916.00
2017-11-12T10:08:46.555Z,1880.00
2017-11-12T10:09:46.549Z,1812.00
2017-11-12T10:10:46.542Z,1724.00
2017-11-12T10:11:46.536Z,1652.00
2017-11-12T10:12:46.531Z,1476.00
2017-11-12T10:13:46.524Z,1384.00
2017-11-12T10:14:46.519Z,1088.00
2017-11-12T10:15:46.513Z,948.00
2017-11-12T10:16:46.508Z,828.00
2017-11-12T10:17:46.502Z,760.00
2017-11-12T10:18:46.506Z,664.00
2017-11-12T10:19:46.489Z,744.00
2017-11-12T10:20:46.483Z,804.00
2017-11-12T10:21:46.478Z,836.00
2017-11-12T10:22:46.471Z,1016.00
2017-11-12T10:23:46.467Z,832.00
2017-11-12T10:24:46.461Z,788.00
2017-11-12T10:25:46.455Z,652.00
2017-11-12T10:26:46.447Z,628.00
2017-11-12T10:27:46.444Z,560.00
2017-11-12T10:28:46.438Z,572.00
2017-11-12T10:29:46.430Z,632.00
2017-11-12T10:30:46.424Z,840.00
2017-11-12T10:31:46.419Z,1264.00
2017-11-12T10:32:46.412Z,1440.00
2017-11-12T10:33:46.406Z,1996.00
2017-11-12T10:34:46.400Z,2188.00
2017-11-12T10:35:46.394Z,2188.00
2017-11-12T10:36:46.388Z,2344.00
2017-11-12T10:37:46.383Z,2448.00
2017-11-12T10:38:46.375Z,2508.00
2017-11-12T10:39:46.369Z,2452.00
2017-11-12T10:40:46.364Z,2388.00
2017-11-12T10:41:46.358Z,2252.00
2017-11-12T10:42:46.352Z,2188.00
2017-11-12T10:43:46.345Z,2152.00
2017-11-12T10:44:46.353Z,2152.00
2017-11-12T10:45:46.438Z,2144.00
2017-11-12T10:46:46.328Z,2160.00
2017-11-12T10:47:46.324Z,2132.00
2017-11-12T10:48:46.316Z,2072.00
2017-11-12T10:49:46.311Z,2020.00
2017-11-12T10:50:46.305Z,2012.00
2017-11-12T10:51:46.301Z,2056.00
2017-11-12T10:52:46.293Z,2088.00
2017-11-12T10:53:46.289Z,2072.00
2017-11-12T10:54:46.280Z,2040.00
2017-11-12T10:55:46.426Z,2056.00
2017-11-12T10:56:46.268Z,2128.00
2017-11-12T10:57:46.263Z,2184.00
2017-11-12T10:58:46.258Z,2204.00
2017-11-12T10:59:46.252Z,2248.00
2017-11-12T11:00:46.248Z,2220.00
2017-11-12T11:01:46.241Z,2220.00
2017-11-12T11:02:46.234Z,2244.00
2017-11-12T11:03:46.229Z,2228.00
2017-11-12T11:04:46.223Z,2188.00
2017-11-12T11:05:46.219Z,2128.00
2017-11-12T11:06:46.235Z,2060.00
2017-11-12T11:07:46.206Z,2004.00
2017-11-12T11:08:46.201Z,1856.00
2017-11-12T11:09:46.196Z,1912.00
2017-11-12T11:10:46.188Z,1944.00
2017-11-12T11:11:46.183Z,1896.00
2017-11-12T11:12:46.177Z,1832.00
2017-11-12T11:13:46.171Z,1808.00
2017-11-12T11:14:46.165Z,1776.00
2017-11-12T11:15:46.163Z,1844.00
2017-11-12T11:16:46.306Z,1884.00
2017-11-12T11:17:46.156Z,1896.00
2017-11-12T11:18:46.143Z,1872.00
2017-11-12T11:19:46.156Z,1836.00
2017-11-12T11:20:46.133Z,1864.00
2017-11-12T11:21:46.127Z,1840.00
2017-11-12T11:22:46.123Z,1872.00
2017-11-12T11:23:46.117Z,1896.00
2017-11-12T11:24:46.109Z,1904.00
2017-11-12T11:25:46.106Z,1892.00
2017-11-12T11:26:46.099Z,1880.00
2017-11-12T11:27:46.094Z,1860.00
2017-11-12T11:28:46.090Z,1868.00
2017-11-12T11:29:46.083Z,1892.00
2017-11-12T11:30:46.076Z,1896.00
2017-11-12T11:31:46.072Z,1888.00
2017-11-12T11:32:46.065Z,1844.00
2017-11-12T11:33:46.060Z,1896.00
2017-11-12T11:34:46.053Z,1968.00
2017-11-12T11:35:46.049Z,2020.00
2017-11-12T11:36:46.047Z,2052.00
2017-11-12T11:37:46.040Z,2068.00
2017-11-12T11:38:46.032Z,2068.00
2017-11-12T11:39:46.028Z,2060.00
2017-11-12T11:40:46.022Z,2076.00
2017-11-12T11:41:46.020Z,2140.00
2017-11-12T11:42:46.010Z,2228.00
2017-11-12T11:43:46.005Z,2328.00
2017-11-12T11:44:46.000Z,2424.00
2017-11-12T11:45:45.995Z,2496.00
2017-11-12T11:46:45.986Z,2580.00
2017-11-12T11:47:45.983Z,2572.00
2017-11-12T11:48:45.977Z,2652.00
2017-11-12T11:49:45.973Z,2700.00
2017-11-12T11:50:45.966Z,2716.00
2017-11-12T11:51:45.960Z,2740.00
2017-11-12T11:52:45.956Z,2712.00
2017-11-12T11:53:45.957Z,2560.00
2017-11-12T11:54:45.945Z,2308.00
2017-11-12T11:55:45.940Z,2288.00
2017-11-12T11:56:45.933Z,2308.00
2017-11-12T11:57:45.931Z,2172.00
2017-11-12T11:58:45.923Z,1988.00
2017-11-12T11:59:45.919Z,1816.00
2017-11-12T12:00:45.913Z,2000.00
2017-11-12T12:01:45.907Z,2136.00
2017-11-12T12:02:45.902Z,2092.00
2017-11-12T12:03:45.897Z,1608.00
2017-11-12T12:04:45.891Z,1568.00
2017-11-12T12:05:45.885Z,1608.00
2017-11-12T12:06:45.880Z,1524.00
2017-11-12T12:07:45.875Z,1628.00
2017-11-12T12:08:45.870Z,1544.00
2017-11-12T12:09:45.864Z,1328.00
2017-11-12T12:10:45.858Z,1136.00
2017-11-12T12:11:45.854Z,1332.00
2017-11-12T12:12:45.848Z,1340.00
2017-11-12T12:13:45.845Z,1540.00
2017-11-12T12:14:45.837Z,1748.00
2017-11-12T12:15:45.832Z,1488.00
2017-11-12T12:16:45.828Z,1424.00
2017-11-12T12:17:45.823Z,1488.00
2017-11-12T12:18:45.823Z,1612.00
2017-11-12T12:19:45.810Z,1764.00
2017-11-12T12:20:45.805Z,1728.00
2017-11-12T12:21:45.800Z,1660.00
2017-11-12T12:22:45.795Z,1792.00
2017-11-12T12:23:45.789Z,1788.00
2017-11-12T12:24:45.784Z,1636.00
2017-11-12T12:25:45.779Z,1604.00
2017-11-12T12:26:45.773Z,1500.00
2017-11-12T12:27:45.768Z,1072.00
2017-11-12T12:28:45.769Z,960.00
2017-11-12T12:29:45.757Z,976.00
2017-11-12T12:30:45.751Z,844.00
2017-11-12T12:31:45.745Z,616.00
2017-11-12T12:32:45.741Z,588.00
2017-11-12T12:33:45.735Z,596.00
2017-11-12T12:34:45.729Z,580.00
2017-11-12T12:35:45.723Z,612.00
2017-11-12T12:36:45.720Z,636.00
2017-11-12T12:37:45.714Z,484.00
2017-11-12T12:38:45.708Z,464.00
2017-11-12T12:39:45.702Z,500.00
2017-11-12T12:40:45.696Z,492.00
2017-11-12T12:41:45.691Z,452.00
2017-11-12T12:42:45.686Z,420.00
2017-11-12T12:43:45.681Z,472.00
2017-11-12T12:44:45.674Z,472.00
2017-11-12T12:45:45.670Z,492.00
2017-11-12T12:46:45.662Z,568.00
2017-11-12T12:47:45.658Z,564.00
2017-11-12T12:48:45.652Z,420.00